Time;durP1;ratioP1;P1;durP2;ratioP2;P2;SDS_P1;SDS_P2;PMS_P1;PMS_P2;Temp;Humidity;BMP_temperature;BMP_pressure;BME280_temperature;BME280_humidity;BME280_pressure;Samples;Min_cycle;Max_cycle;Signal;HPM_P1;HPM_P2
2022/05/27 00:00:46;;;;;;;7.03;2.35;;;;;;;-144.47;46.32;53205.66;4975684;28;20462;-68
2022/05/27 00:03:12;;;;;;;10.82;3.67;;;;;;;-144.47;46.30;53229.50;4991091;28;20030;-71
2022/05/27 00:05:38;;;;;;;14.45;2.40;;;;;;;-144.47;46.19;53209.66;4989855;28;20116;-71
2022/05/27 00:08:04;;;;;;;5.15;2.13;;;;;;;-144.47;46.21;53235.47;4990550;28;20133;-65
2022/05/27 00:10:29;;;;;;;14.00;3.65;;;;;;;-144.47;46.32;53253.34;4991429;28;20026;-70
2022/05/27 00:12:55;;;;;;;9.27;2.83;;;;;;;-144.47;46.17;53227.53;4990768;28;20089;-67
2022/05/27 00:15:20;;;;;;;10.57;2.40;;;;;;;-144.47;46.11;53245.41;4990946;28;20445;-68
2022/05/27 00:17:46;;;;;;;8.52;2.40;;;;;;;-144.47;45.97;53247.38;4990654;28;20030;-69
2022/05/27 00:20:12;;;;;;;6.40;2.10;;;;;;;-144.47;46.00;53253.34;4990522;28;20101;-69
2022/05/27 00:22:37;;;;;;;13.73;2.40;;;;;;;-144.47;46.00;53237.44;4990854;28;20030;-68
2022/05/27 00:25:03;;;;;;;5.30;2.08;;;;;;;-144.47;46.00;53257.31;4991515;28;20037;-66
2022/05/27 00:27:29;;;;;;;11.32;2.38;;;;;;;-144.47;46.06;53197.72;4990246;28;20049;-69
2022/05/27 00:29:54;;;;;;;9.25;2.10;;;;;;;-144.47;46.17;53221.56;4972964;28;20034;-66
2022/05/27 00:32:19;;;;;;;5.35;2.13;;;;;;;-144.47;46.00;53229.50;4990915;28;20489;-69
2022/05/27 00:34:44;;;;;;;6.45;2.13;;;;;;;-144.47;46.03;53225.53;4990850;28;20262;-67
2022/05/27 00:37:10;;;;;;;8.73;2.45;;;;;;;-144.47;46.07;53239.44;4989147;28;20045;-69
2022/05/27 00:39:38;;;;;;;9.57;2.42;;;;;;;-144.47;46.08;53243.41;4990969;28;20026;-69
2022/05/27 00:42:05;;;;;;;12.80;3.22;;;;;;;-144.47;46.13;53251.34;4990125;28;20477;-70
2022/05/27 00:44:30;;;;;;;8.88;2.10;;;;;;;-144.47;46.11;53241.44;4973770;28;20041;-68
2022/05/27 00:47:07;;;;;;;7.65;2.30;;;;;;;-144.47;46.17;53229.50;4989655;28;20022;-69
2022/05/27 00:49:33;;;;;;;11.52;2.38;;;;;;;-144.47;46.20;53235.47;4990602;28;20117;-69
2022/05/27 00:52:06;;;;;;;10.25;2.10;;;;;;;-144.47;46.22;53247.38;4987098;28;20554;-70
2022/05/27 00:54:33;;;;;;;9.70;2.33;;;;;;;-144.47;46.32;53189.78;4986477;28;20106;-70
2022/05/27 00:57:07;;;;;;;15.30;2.20;;;;;;;-144.47;46.30;53197.72;4990876;28;20030;-69
2022/05/27 00:59:38;;;;;;;12.50;2.20;;;;;;;-144.47;46.27;53217.59;4990225;28;20054;-68
2022/05/27 01:04:33;;;;;;;11.93;2.90;;;;;;;-144.47;46.37;53249.38;4989294;28;20393;-70
2022/05/27 01:06:59;;;;;;;7.95;1.83;;;;;;;-144.47;46.44;53223.56;4992374;28;20085;-71
2022/05/27 01:09:25;;;;;;;6.45;2.60;;;;;;;-144.47;46.45;53265.25;4992152;28;20109;-70
2022/05/27 01:11:57;;;;;;;14.85;2.28;;;;;;;-144.47;46.57;53227.53;4993072;28;20061;-70
2022/05/27 01:14:52;;;;;;;7.07;1.95;;;;;;;-144.47;46.50;53261.28;4991929;28;20037;-70
2022/05/27 01:17:54;;;;;;;9.05;2.83;;;;;;;-144.47;46.58;53257.31;4991961;28;20105;-71
2022/05/27 01:20:40;;;;;;;6.22;2.03;;;;;;;-144.47;46.64;53219.56;4991216;28;20494;-71
2022/05/27 01:23:33;;;;;;;23.98;2.50;;;;;;;-144.47;46.64;53259.31;4991843;28;20402;-68
2022/05/27 01:26:29;;;;;;;6.88;2.00;;;;;;;-144.47;46.60;53235.47;4990264;28;20522;-69
2022/05/27 01:29:16;;;;;;;20.50;2.97;;;;;;;-144.47;46.64;53239.44;4991573;28;20021;-68
2022/05/27 01:31:50;;;;;;;8.93;2.42;;;;;;;-144.47;46.77;53237.44;4991782;28;20026;-67
2022/05/27 01:34:23;;;;;;;7.90;1.90;;;;;;;-144.47;46.84;53245.41;4992073;28;20181;-69
2022/05/27 01:37:09;;;;;;;9.75;2.10;;;;;;;-144.47;46.85;53195.75;4976110;28;20037;-68
2022/05/27 01:39:54;;;;;;;12.75;2.70;;;;;;;-144.47;46.90;53205.66;4991280;28;20022;-67
2022/05/27 01:42:40;;;;;;;6.78;2.25;;;;;;;-144.47;47.08;53251.34;4990992;28;20441;-69
2022/05/27 01:45:21;;;;;;;15.50;2.20;;;;;;;-144.47;47.18;53231.50;4991580;28;20030;-69
2022/05/27 01:47:57;;;;;;;11.98;2.67;;;;;;;-144.47;47.29;53235.47;4991870;28;20560;-69
2022/05/27 01:50:25;;;;;;;8.40;2.35;;;;;;;-144.47;47.39;53245.41;4990655;28;20249;-67
2022/05/27 01:53:19;;;;;;;10.45;2.58;;;;;;;-144.47;47.50;53211.63;4990378;28;20053;-68
2022/05/27 01:56:00;;;;;;;7.90;1.92;;;;;;;-144.47;47.62;53251.34;4982332;28;20037;-70
2022/05/27 01:58:33;;;;;;;22.80;3.05;;;;;;;-144.47;47.76;53215.59;4991124;28;20018;-70
2022/05/27 02:00:58;;;;;;;12.23;2.15;;;;;;;-144.47;47.78;53233.47;4989432;28;20526;-70
2022/05/27 02:03:30;;;;;;;10.05;2.00;;;;;;;-144.47;47.94;53263.28;4989588;28;20098;-68
2022/05/27 02:06:23;;;;;;;13.73;2.47;;;;;;;-144.47;48.01;53261.28;4990600;28;20104;-71
2022/05/27 02:08:55;;;;;;;7.50;2.45;;;;;;;-144.47;48.09;53237.44;4990326;28;20096;-71
2022/05/27 02:11:22;;;;;;;14.95;2.72;;;;;;;-144.47;48.19;53261.28;4991079;28;20027;-71
2022/05/27 02:13:52;;;;;;;11.02;2.72;;;;;;;-144.47;48.17;53267.25;4983861;28;20490;-70
2022/05/27 02:16:24;;;;;;;10.50;2.13;;;;;;;-144.47;48.15;53205.66;4979483;28;20175;-71
2022/05/27 02:19:00;;;;;;;8.60;2.28;;;;;;;-144.47;48.09;53225.53;4990904;28;20036;-69
2022/05/27 02:21:39;;;;;;;14.38;2.38;;;;;;;-144.47;48.17;53225.53;4990853;28;20033;-71
2022/05/27 02:24:21;;;;;;;22.38;3.10;;;;;;;-144.47;48.31;53211.63;4990969;28;20025;-71
2022/05/27 02:26:53;;;;;;;15.68;2.53;;;;;;;-144.47;48.37;53253.34;4991028;28;20037;-71
2022/05/27 02:29:28;;;;;;;11.05;2.50;;;;;;;-144.47;48.39;53237.44;4989421;28;20019;-68
2022/05/27 02:31:59;;;;;;;12.35;2.17;;;;;;;-144.47;48.64;53243.41;4990830;28;20121;-67
2022/05/27 02:37:27;;;;;;;15.05;2.53;;;;;;;-144.47;48.90;53213.63;4990867;28;20049;-71
2022/05/27 02:39:54;;;;;;;12.35;2.65;;;;;;;-144.47;48.86;53261.28;4990350;28;20240;-68
2022/05/27 02:42:34;;;;;;;12.65;2.47;;;;;;;-144.47;49.05;53233.47;4990733;28;20084;-68
2022/05/27 02:45:05;;;;;;;14.85;2.90;;;;;;;-144.47;49.13;53241.44;4990362;28;20406;-70
2022/05/27 02:48:18;;;;;;;12.23;2.10;;;;;;;-144.47;49.31;53203.69;4990557;28;20125;-71
2022/05/27 02:51:12;;;;;;;5.57;1.95;;;;;;;-144.47;49.43;53231.50;4937318;29;20038;-68
2022/05/27 02:54:00;;;;;;;12.85;2.67;;;;;;;-144.47;49.62;53229.50;4927816;29;20046;-70
2022/05/27 02:56:29;;;;;;;11.45;3.20;;;;;;;-144.47;49.78;53227.53;4948843;29;20122;-68
2022/05/27 02:58:55;;;;;;;16.70;2.70;;;;;;;-144.47;49.83;53227.53;4948625;29;20513;-67
2022/05/27 03:01:21;;;;;;;9.23;2.55;;;;;;;-144.47;49.97;53237.44;4948826;29;20043;-70
2022/05/27 03:03:47;;;;;;;10.35;2.33;;;;;;;-144.47;50.00;53233.47;4948160;29;20053;-66
2022/05/27 03:06:25;;;;;;;10.95;3.05;;;;;;;-144.47;50.28;53265.25;4948817;29;20031;-70
2022/05/27 03:09:02;;;;;;;11.77;2.40;;;;;;;-144.47;50.49;53249.38;4947259;29;20518;-69
2022/05/27 03:11:43;;;;;;;8.05;2.20;;;;;;;-144.47;50.69;53235.47;4948027;29;20035;-69
2022/05/27 03:14:14;;;;;;;10.07;2.95;;;;;;;-144.47;50.88;53235.47;4948935;29;20023;-71
2022/05/27 03:17:00;;;;;;;8.23;2.58;;;;;;;-144.47;50.93;53283.13;4948489;29;20497;-70
2022/05/27 03:20:00;;;;;;;10.57;2.67;;;;;;;-144.47;50.95;53239.44;4948098;29;20165;-70
2022/05/27 03:22:43;;;;;;;6.97;2.22;;;;;;;-144.47;51.21;53219.56;4980914;28;20034;-71
2022/05/27 03:25:29;;;;;;;12.43;3.05;;;;;;;-144.47;51.43;53189.78;4990037;28;20105;-70
2022/05/27 03:27:58;;;;;;;13.82;2.88;;;;;;;-144.47;51.53;53209.66;4989835;28;20105;-69
2022/05/27 03:30:38;;;;;;;9.50;2.70;;;;;;;-144.47;51.80;53267.25;4989979;28;20023;-68
2022/05/27 03:33:09;;;;;;;13.48;3.00;;;;;;;-144.47;51.95;53293.06;4989787;28;20026;-71
2022/05/27 03:35:53;;;;;;;9.98;2.95;;;;;;;-144.47;52.20;53263.28;4985122;28;20026;-70
2022/05/27 03:38:49;;;;;;;13.02;3.13;;;;;;;-144.47;52.49;53223.56;4976340;28;20030;-69
2022/05/27 03:41:23;;;;;;;16.98;3.42;;;;;;;-144.47;52.69;53235.47;4990540;28;20033;-67
2022/05/27 03:43:49;;;;;;;11.18;2.67;;;;;;;-144.47;52.84;53251.34;4988918;28;20053;-71
2022/05/27 03:46:36;;;;;;;10.43;2.80;;;;;;;-144.47;52.91;53277.19;4989888;28;20034;-71
2022/05/27 03:49:02;;;;;;;12.18;2.40;;;;;;;-144.47;53.18;53251.34;4990273;28;20022;-72
2022/05/27 03:51:32;;;;;;;15.80;3.58;;;;;;;-144.47;53.38;53275.19;4989830;28;20298;-69
2022/05/27 03:54:03;;;;;;;21.05;2.90;;;;;;;-144.47;53.38;53261.28;4990038;28;20030;-69
2022/05/27 03:56:37;;;;;;;7.97;2.75;;;;;;;-144.47;53.61;53253.34;4989563;28;20030;-70
2022/05/27 03:59:04;;;;;;;36.38;3.58;;;;;;;-144.47;53.83;53293.06;4989743;28;20377;-70
2022/05/27 04:01:31;;;;;;;8.45;2.65;;;;;;;-144.47;53.99;53285.13;4989773;28;20026;-68
2022/05/27 04:03:59;;;;;;;20.85;3.22;;;;;;;-144.47;54.00;53261.28;4989073;28;20034;-71
2022/05/27 04:06:25;;;;;;;12.20;2.70;;;;;;;-144.47;54.38;53283.13;4989545;28;20022;-71
2022/05/27 04:08:50;;;;;;;10.05;3.53;;;;;;;-144.47;54.52;53281.16;4988083;28;20076;-68
2022/05/27 04:11:15;;;;;;;16.17;3.78;;;;;;;-144.47;54.62;53259.31;4989441;28;20390;-71
2022/05/27 04:13:41;;;;;;;13.10;2.97;;;;;;;-144.47;54.72;53308.97;4983029;28;20114;-69
2022/05/27 04:16:06;;;;;;;11.80;3.17;;;;;;;-144.47;55.04;53247.38;4977722;28;20034;-71
2022/05/27 04:18:31;;;;;;;9.23;2.55;;;;;;;-144.47;55.16;53269.22;4990446;28;20461;-69
2022/05/27 04:20:57;;;;;;;14.30;3.38;;;;;;;-144.47;55.41;53251.34;4993302;28;20030;-72
2022/05/27 04:23:22;;;;;;;16.50;3.75;;;;;;;-144.47;55.43;53271.22;4991856;28;20031;-68
2022/05/27 04:25:49;;;;;;;11.82;3.33;;;;;;;-144.47;55.66;53305.00;4992025;28;20547;-68
2022/05/27 04:28:15;;;;;;;10.50;3.28;;;;;;;-144.47;55.73;53239.44;4993303;28;20028;-72
2022/05/27 04:30:41;;;;;;;12.38;3.85;;;;;;;-144.47;55.61;53237.44;4992661;28;20109;-69
2022/05/27 04:33:08;;;;;;;10.90;3.20;;;;;;;-144.47;56.20;53269.22;4993018;28;20076;-70
2022/05/27 04:35:33;;;;;;;19.88;3.35;;;;;;;-144.47;56.28;53237.44;4991947;28;20092;-70
2022/05/27 04:37:58;;;;;;;14.10;3.38;;;;;;;-144.47;56.57;53293.06;4992458;28;20425;-69
2022/05/27 04:40:23;;;;;;;12.35;3.58;;;;;;;-144.47;56.72;53281.16;4992383;28;20130;-67
2022/05/27 04:42:52;;;;;;;19.95;3.55;;;;;;;-144.47;56.57;53247.38;4992937;28;20042;-71
2022/05/27 04:45:19;;;;;;;11.23;3.40;;;;;;;-144.47;56.87;53277.19;4994915;28;20034;-70
2022/05/27 04:47:45;;;;;;;16.13;3.85;;;;;;;-144.47;57.01;53291.09;4995336;28;20092;-72
2022/05/27 04:50:11;;;;;;;13.07;3.85;;;;;;;-144.47;57.20;53271.22;4994644;28;20022;-67
2022/05/27 04:52:37;;;;;;;10.18;3.60;;;;;;;-144.47;57.36;53271.22;4986632;28;20062;-70
2022/05/27 04:55:09;;;;;;;12.43;4.30;;;;;;;-144.47;57.60;53281.16;4984641;28;20061;-68
2022/05/27 04:57:39;;;;;;;14.20;3.78;;;;;;;-144.47;58.15;53283.13;4995191;28;20056;-68
2022/05/27 05:00:13;;;;;;;16.13;3.85;;;;;;;-144.47;58.50;53275.19;4990955;28;20018;-71
2022/05/27 05:02:38;;;;;;;20.05;3.65;;;;;;;-144.47;59.03;53283.13;4991872;28;20034;-68
2022/05/27 05:05:04;;;;;;;15.13;4.45;;;;;;;-144.47;59.95;53293.06;4993407;28;20084;-72
2022/05/27 05:07:29;;;;;;;10.85;4.32;;;;;;;-144.47;60.53;53303.00;4992705;28;20033;-68
2022/05/27 05:09:55;;;;;;;11.05;4.50;;;;;;;-144.47;61.07;53303.00;4992138;28;20398;-68
2022/05/27 05:12:22;;;;;;;15.35;5.10;;;;;;;-144.47;61.68;53308.97;4991707;28;20113;-67
2022/05/27 05:14:48;;;;;;;18.70;5.75;;;;;;;-144.47;62.58;53320.88;4992140;28;20088;-71
2022/05/27 05:17:14;;;;;;;15.40;5.15;;;;;;;-144.47;63.73;53301.03;4985538;28;20533;-71
2022/05/27 05:19:39;;;;;;;11.23;5.38;;;;;;;-144.47;65.61;53305.00;4991986;28;20057;-67
2022/05/27 05:22:04;;;;;;;14.52;6.40;;;;;;;-144.47;67.26;53301.03;4989077;28;20026;-71
2022/05/27 05:24:30;;;;;;;22.13;6.38;;;;;;;-144.47;69.01;53305.00;4993668;28;20021;-68
2022/05/27 05:26:56;;;;;;;22.55;7.32;;;;;;;-144.47;69.51;53301.03;4995645;28;20074;-68
2022/05/27 05:29:21;;;;;;;23.60;6.55;;;;;;;-144.47;69.24;53320.88;4987933;28;20026;-68
2022/05/27 05:31:47;;;;;;;27.90;7.25;;;;;;;-144.47;70.41;53326.84;4980654;28;20038;-67
2022/05/27 05:34:12;;;;;;;20.58;7.18;;;;;;;-144.47;70.48;53350.69;4986059;28;20465;-69
2022/05/27 05:36:37;;;;;;;20.67;8.10;;;;;;;-144.47;70.96;53340.75;4983472;28;20498;-68
2022/05/27 05:39:04;;;;;;;29.45;7.40;;;;;;;-144.47;70.73;53328.81;4983658;28;20026;-70
2022/05/27 05:41:34;;;;;;;35.42;6.72;;;;;;;-144.47;70.38;53281.16;4985870;28;20030;-66
2022/05/27 05:44:01;;;;;;;23.80;6.72;;;;;;;-144.47;69.77;53289.09;4981948;28;20030;-67
2022/05/27 05:46:27;;;;;;;17.85;6.80;;;;;;;-144.47;69.79;53312.94;4983640;28;20179;-70
2022/05/27 05:48:54;;;;;;;24.85;6.50;;;;;;;-144.47;69.01;53334.78;4985950;28;20023;-67
2022/05/27 05:51:20;;;;;;;18.55;6.18;;;;;;;-144.47;69.11;53289.09;4984929;28;20044;-69
2022/05/27 05:53:45;;;;;;;19.65;6.80;;;;;;;-144.47;69.44;53336.78;4981020;28;20097;-71
2022/05/27 05:56:11;;;;;;;16.00;4.80;;;;;;;-144.47;68.97;53328.81;4984866;28;20026;-69
2022/05/27 05:58:36;;;;;;;12.20;4.70;;;;;;;-144.47;68.83;53328.81;4979794;28;20037;-70
2022/05/27 06:01:03;;;;;;;13.40;3.45;;;;;;;-144.47;68.60;53336.78;4982165;28;20041;-68
2022/05/27 06:03:28;;;;;;;14.32;3.97;;;;;;;-144.47;68.95;53285.13;4980838;28;20035;-71
2022/05/27 06:05:54;;;;;;;8.68;3.65;;;;;;;-144.47;68.70;53332.81;4982553;28;20097;-71
2022/05/27 06:08:19;;;;;;;11.13;3.20;;;;;;;-144.47;69.25;53320.88;4986341;28;20106;-66
2022/05/27 06:10:45;;;;;;;11.43;3.55;;;;;;;-144.47;68.76;53352.66;4972504;28;20037;-70
2022/05/27 06:13:11;;;;;;;14.48;3.53;;;;;;;-144.47;68.95;53330.81;4988037;28;20026;-68
2022/05/27 06:15:37;;;;;;;6.22;2.58;;;;;;;-144.47;69.09;53330.81;4984438;28;20033;-70
2022/05/27 06:18:04;;;;;;;7.40;3.38;;;;;;;-144.47;68.75;53328.81;4990444;28;20033;-66
2022/05/27 06:20:29;;;;;;;8.25;3.40;;;;;;;-144.47;69.10;53332.81;4990377;28;20109;-68
2022/05/27 06:22:54;;;;;;;5.32;1.50;;;;;;;-144.47;70.17;53352.66;4990495;28;20105;-71
2022/05/27 06:25:20;;;;;;;6.38;0.95;;;;;;;-144.47;71.98;53352.66;4990558;28;20485;-69
2022/05/27 06:27:46;;;;;;;1.95;1.00;;;;;;;-144.47;73.11;53338.75;4990946;28;20073;-71
2022/05/27 06:35:41;;;;;;;2.65;1.30;;;;;;;-144.47;74.90;53362.59;4991709;28;20109;-71
2022/05/27 06:38:07;;;;;;;2.63;1.35;;;;;;;-144.47;75.61;53366.56;4991000;28;20080;-68
2022/05/27 06:40:33;;;;;;;12.23;1.73;;;;;;;-144.47;75.33;53320.88;4970584;28;20102;-71
2022/05/27 06:42:58;;;;;;;7.68;1.52;;;;;;;-144.47;74.74;53338.75;4983769;28;20109;-70
2022/05/27 06:45:24;;;;;;;2.58;1.65;;;;;;;-144.47;76.13;53368.56;4990894;28;20026;-70
2022/05/27 06:47:49;;;;;;;6.97;1.70;;;;;;;-144.47;76.89;53368.56;4990501;28;20113;-70
2022/05/27 06:50:15;;;;;;;5.25;1.60;;;;;;;-144.47;77.03;53360.63;4990324;28;20114;-70
2022/05/27 06:52:41;;;;;;;7.85;1.67;;;;;;;-144.47;76.02;53368.56;4980949;28;20026;-70
2022/05/27 06:55:08;;;;;;;5.00;1.42;;;;;;;-144.47;75.30;53404.31;4982029;28;20027;-70
2022/05/27 06:57:34;;;;;;;2.97;1.45;;;;;;;-144.47;74.56;53342.72;4989464;28;20030;-71
2022/05/27 07:00:00;;;;;;;4.70;1.30;;;;;;;-144.47;71.75;53344.72;4976679;28;20446;-70
2022/05/27 07:05:08;;;;;;;4.60;1.40;;;;;;;-144.47;74.14;53372.53;5026088;28;20099;-67
2022/05/27 07:07:34;;;;;;;3.47;1.50;;;;;;;-144.47;73.64;53374.50;5027495;28;20025;-69
2022/05/27 07:09:59;;;;;;;2.67;1.20;;;;;;;-144.47;74.39;53366.56;5028819;28;20030;-70
2022/05/27 07:12:24;;;;;;;3.47;1.33;;;;;;;-144.47;73.15;53370.53;5029255;28;20112;-69
2022/05/27 07:14:50;;;;;;;4.85;1.60;;;;;;;-144.47;73.78;53336.78;5029536;28;20100;-67
2022/05/27 07:17:15;;;;;;;3.15;1.30;;;;;;;-144.47;73.52;53384.44;5028887;28;20021;-69
2022/05/27 07:19:41;;;;;;;2.05;1.35;;;;;;;-144.47;74.27;53342.72;5029219;28;20025;-68
2022/05/27 07:22:08;;;;;;;2.53;1.20;;;;;;;-144.47;73.50;53378.50;5027313;28;20047;-68
2022/05/27 07:24:34;;;;;;;5.15;1.35;;;;;;;-144.47;72.85;53366.56;5027516;28;20034;-69
2022/05/27 07:27:02;;;;;;;2.75;1.40;;;;;;;-144.47;72.11;53356.63;5024022;28;20025;-68
2022/05/27 07:29:28;;;;;;;5.43;1.38;;;;;;;-144.47;73.23;53362.59;5020519;28;20025;-68
2022/05/27 07:31:54;;;;;;;3.15;1.27;;;;;;;-144.47;72.30;53354.66;5021909;28;20053;-68
2022/05/27 07:34:19;;;;;;;2.85;1.33;;;;;;;-144.47;73.62;53336.78;5022607;28;20032;-68
2022/05/27 07:36:44;;;;;;;2.22;1.23;;;;;;;-144.47;72.93;53396.38;5019252;28;20575;-69
2022/05/27 07:39:10;;;;;;;3.05;1.55;;;;;;;-144.47;73.79;53340.75;5021426;28;20032;-68
2022/05/27 07:41:35;;;;;;;4.35;1.45;;;;;;;-144.47;73.19;53352.66;5021292;28;20320;-70
2022/05/27 07:44:01;;;;;;;5.30;1.77;;;;;;;-144.47;72.06;53328.81;5022623;28;20035;-69
2022/05/27 07:46:29;;;;;;;5.68;1.60;;;;;;;-144.47;72.35;53348.69;5022707;28;20101;-69
2022/05/27 07:48:55;;;;;;;5.30;1.60;;;;;;;-144.47;71.48;53366.56;5021712;28;20461;-69
2022/05/27 07:51:20;;;;;;;4.22;1.25;;;;;;;-144.47;71.69;53320.88;5020171;28;20033;-69
2022/05/27 07:53:45;;;;;;;3.58;1.45;;;;;;;-144.47;70.66;53324.84;5021430;28;20518;-68
2022/05/27 07:56:11;;;;;;;4.18;1.50;;;;;;;-144.47;71.70;53338.75;5027092;28;20391;-67
2022/05/27 07:58:37;;;;;;;3.58;1.40;;;;;;;-144.47;70.42;53348.69;5025923;28;20045;-66
2022/05/27 08:01:04;;;;;;;2.28;1.40;;;;;;;-144.47;69.68;53342.72;5023774;28;20111;-71
2022/05/27 08:03:29;;;;;;;4.90;1.30;;;;;;;-144.47;69.24;53372.53;5025994;28;20049;-71
2022/05/27 08:05:58;;;;;;;4.82;1.42;;;;;;;-144.47;67.01;53362.59;5026433;28;20022;-66
2022/05/27 08:08:23;;;;;;;2.92;1.30;;;;;;;-144.47;66.97;53342.72;5025198;28;20029;-70
2022/05/27 08:10:49;;;;;;;4.20;1.48;;;;;;;-144.47;65.89;53358.63;5017280;28;20411;-69
2022/05/27 08:13:14;;;;;;;2.80;1.20;;;;;;;-144.47;63.64;53344.72;5023064;28;20021;-70
2022/05/27 08:15:40;;;;;;;3.08;1.25;;;;;;;-144.47;64.67;53293.06;5024015;28;20140;-69
2022/05/27 08:18:05;;;;;;;6.57;1.42;;;;;;;-144.47;64.39;53316.91;5025887;28;20051;-68
2022/05/27 08:20:33;;;;;;;3.45;1.38;;;;;;;-144.47;63.47;53334.78;5023214;28;20512;-68
2022/05/27 08:23:00;;;;;;;3.97;1.20;;;;;;;-144.47;63.65;53312.94;5021021;28;20032;-69
2022/05/27 08:25:27;;;;;;;2.60;1.27;;;;;;;-144.47;63.68;53320.88;5024591;28;20083;-69
2022/05/27 08:27:54;;;;;;;3.05;1.20;;;;;;;-144.47;63.08;53289.09;5025224;28;20227;-68
2022/05/27 08:30:22;;;;;;;2.95;1.20;;;;;;;-144.47;63.95;53308.97;5024628;28;20079;-69
2022/05/27 08:32:48;;;;;;;6.50;1.30;;;;;;;-144.47;64.12;53352.66;5025225;28;20029;-68
2022/05/27 08:38:03;;;;;;;3.58;1.38;;;;;;;-144.47;64.30;53332.81;5025455;28;20124;-68
2022/05/27 08:41:06;;;;;;;4.25;1.25;;;;;;;-144.47;65.12;53293.06;5024291;28;20061;-68
2022/05/27 08:43:46;;;;;;;4.57;1.40;;;;;;;-144.47;64.88;53285.13;5031229;28;20033;-69
2022/05/27 08:46:28;;;;;;;4.30;1.40;;;;;;;-144.47;64.87;53336.78;5025599;28;20040;-70
2022/05/27 08:48:58;;;;;;;3.03;1.40;;;;;;;-144.47;64.27;53342.72;5024851;28;20036;-69
2022/05/27 08:51:47;;;;;;;3.65;1.70;;;;;;;-144.47;65.49;53324.84;5030052;28;20108;-68
2022/05/27 08:54:16;;;;;;;3.90;1.73;;;;;;;-144.47;65.12;53324.84;5029497;28;20260;-68
2022/05/27 08:59:54;;;;;;;4.53;1.40;;;;;;;-144.47;63.50;53303.00;5029651;28;20430;-68
2022/05/27 09:02:36;;;;;;;8.00;1.63;;;;;;;-144.47;63.81;53344.72;5029537;28;20021;-70
2022/05/27 09:05:37;;;;;;;5.72;1.88;;;;;;;-144.47;62.53;53312.94;5026108;28;20044;-67
2022/05/27 09:08:17;;;;;;;6.53;1.40;;;;;;;-144.47;63.78;53316.91;5023739;28;20033;-68
2022/05/27 09:10:51;;;;;;;3.65;1.40;;;;;;;-144.47;64.32;53322.88;5029287;28;20037;-69
2022/05/27 09:13:30;;;;;;;4.22;1.50;;;;;;;-144.47;64.86;53295.06;5031314;28;20079;-69
2022/05/27 09:16:16;;;;;;;6.40;1.92;;;;;;;-144.47;63.92;53305.00;5029901;28;20527;-65
2022/05/27 09:18:58;;;;;;;10.45;1.98;;;;;;;-144.47;63.58;53336.78;5030331;28;20025;-68
2022/05/27 09:21:39;;;;;;;4.35;1.60;;;;;;;-144.47;64.44;53308.97;5029762;28;20553;-67
2022/05/27 09:24:30;;;;;;;5.35;1.60;;;;;;;-144.47;65.09;53330.81;5029934;28;20026;-66
2022/05/27 09:27:06;;;;;;;4.20;1.90;;;;;;;-144.47;64.59;53303.00;5027020;28;20035;-67
2022/05/27 09:29:59;;;;;;;5.18;2.30;;;;;;;-144.47;65.37;53336.78;5030509;28;20022;-65
2022/05/27 09:32:55;;;;;;;9.95;2.00;;;;;;;-144.47;64.72;53281.16;5029920;28;20021;-67
2022/05/27 09:35:48;;;;;;;4.97;2.17;;;;;;;-144.47;65.05;53257.31;5022306;28;20132;-66
2022/05/27 09:38:23;;;;;;;4.05;1.70;;;;;;;-144.47;65.23;53336.78;5028858;28;20488;-67
2022/05/27 09:40:53;;;;;;;8.07;1.75;;;;;;;-144.47;62.96;53330.81;5030661;28;20104;-65
2022/05/27 09:43:36;;;;;;;6.60;1.88;;;;;;;-144.47;62.81;53305.00;5029983;28;20052;-66
2022/05/27 09:46:15;;;;;;;6.57;2.13;;;;;;;-144.47;62.84;53293.06;5030274;28;20044;-68
2022/05/27 09:48:40;;;;;;;4.10;1.77;;;;;;;-144.47;63.45;53289.09;5028666;28;20053;-67
2022/05/27 09:51:09;;;;;;;4.35;1.70;;;;;;;-144.47;62.48;53322.88;5030263;28;20464;-67
2022/05/27 09:53:39;;;;;;;6.18;1.80;;;;;;;-144.47;62.18;53316.91;5030109;28;20523;-66
2022/05/27 09:56:11;;;;;;;4.70;1.98;;;;;;;-144.47;62.01;53299.03;5028688;28;20032;-68
2022/05/27 09:58:40;;;;;;;11.68;2.75;;;;;;;-144.47;62.08;53312.94;5029933;28;20140;-67
2022/05/27 10:01:22;;;;;;;4.03;1.85;;;;;;;-144.47;60.52;53277.19;5029501;28;20026;-67
2022/05/27 10:04:00;;;;;;;6.57;1.95;;;;;;;-144.47;61.38;53316.91;5029421;28;20030;-68
2022/05/27 10:06:27;;;;;;;6.20;2.00;;;;;;;-144.47;61.51;53350.69;5028573;28;20067;-66
2022/05/27 10:08:56;;;;;;;4.47;1.88;;;;;;;-144.47;62.57;53320.88;5029546;28;20332;-66
2022/05/27 10:11:23;;;;;;;5.75;1.80;;;;;;;-144.47;59.17;53312.94;5029873;28;20032;-70
2022/05/27 10:14:09;;;;;;;7.85;2.00;;;;;;;-144.47;60.39;53285.13;5028073;28;20091;-67
2022/05/27 10:16:35;;;;;;;3.20;1.65;;;;;;;-144.47;59.41;53297.03;5027036;28;20039;-67
2022/05/27 10:19:24;;;;;;;6.15;1.92;;;;;;;-144.47;58.57;53310.94;5030429;28;20111;-67
2022/05/27 10:21:57;;;;;;;5.15;2.42;;;;;;;-144.47;59.26;53287.13;5021668;28;20033;-70
2022/05/27 10:24:41;;;;;;;7.20;1.95;;;;;;;-144.47;56.05;53301.03;5023429;28;20033;-67
2022/05/27 10:27:13;;;;;;;4.93;1.75;;;;;;;-144.47;54.67;53261.28;5025083;28;20025;-67
2022/05/27 10:29:58;;;;;;;7.22;1.63;;;;;;;-144.47;55.30;53285.13;5029239;28;20017;-65
2022/05/27 10:32:43;;;;;;;6.80;1.65;;;;;;;-144.47;56.92;53287.13;5029602;28;20171;-65
2022/05/27 10:35:21;;;;;;;4.47;1.77;;;;;;;-144.47;53.98;53263.28;5028978;28;20021;-69
2022/05/27 10:37:46;;;;;;;4.93;1.60;;;;;;;-144.47;56.13;53249.38;5028932;28;20033;-63
2022/05/27 10:40:24;;;;;;;7.60;2.10;;;;;;;-144.47;55.92;53249.38;5028704;28;20481;-66
2022/05/27 10:43:11;;;;;;;3.83;1.60;;;;;;;-144.47;55.61;53297.03;5029060;28;20025;-67
2022/05/27 10:45:44;;;;;;;5.05;1.73;;;;;;;-144.47;56.07;53261.28;5028657;28;20033;-67
2022/05/27 10:48:32;;;;;;;4.82;1.75;;;;;;;-144.47;nan;53310.94;5028450;28;20314;-70
2022/05/27 10:51:04;;;;;;;4.13;1.75;;;;;;;-144.47;56.17;53297.03;5028390;28;20148;-66
2022/05/27 10:53:48;;;;;;;5.57;1.80;;;;;;;-144.47;57.14;53267.25;5027413;28;20172;-69
2022/05/27 10:56:19;;;;;;;3.97;1.90;;;;;;;-144.47;57.36;53295.06;5028108;28;20025;-64
2022/05/27 11:02:05;;;;;;;11.40;1.98;;;;;;;-144.47;55.16;53308.97;5020840;28;20117;-67
2022/05/27 11:04:58;;;;;;;7.53;1.30;;;;;;;-144.47;54.56;53239.44;5025435;28;20030;-66
2022/05/27 11:07:32;;;;;;;7.72;1.85;;;;;;;-144.47;55.30;53283.13;5018241;28;20029;-67
2022/05/27 11:10:16;;;;;;;8.10;2.05;;;;;;;-144.47;53.52;53301.03;5017410;28;20602;-70
2022/05/27 11:16:02;;;;;;;4.18;1.75;;;;;;;-144.47;52.71;53273.22;5017480;28;20052;-65
2022/05/27 11:19:03;;;;;;;4.70;1.65;;;;;;;-144.47;52.69;53237.44;5026272;28;20065;-69
2022/05/27 11:21:48;;;;;;;4.50;1.65;;;;;;;-144.47;52.06;53281.16;5020543;28;20122;-70
2022/05/27 11:24:51;;;;;;;3.38;1.33;;;;;;;-144.47;52.21;53263.28;5017680;28;20545;-65
2022/05/27 11:27:19;;;;;;;5.35;1.90;;;;;;;-144.47;52.41;53303.00;5019584;28;20101;-68
2022/05/27 11:29:53;;;;;;;5.25;1.60;;;;;;;-144.47;53.60;53233.47;5023323;28;20028;-65
2022/05/27 11:32:53;;;;;;;5.43;1.83;;;;;;;-144.47;52.76;53279.16;5022856;28;20041;-66
2022/05/27 11:35:43;;;;;;;4.28;1.50;;;;;;;-144.47;51.88;53275.19;5023104;28;20112;-67
2022/05/27 11:38:52;;;;;;;3.83;1.30;;;;;;;-144.47;51.24;53251.34;5022787;28;20029;-69
2022/05/27 11:41:23;;;;;;;5.25;1.60;;;;;;;-144.47;51.10;53271.22;5002936;28;20445;-68
2022/05/27 11:44:07;;;;;;;7.28;1.95;;;;;;;-144.47;50.78;53283.13;5023763;28;20036;-70
2022/05/27 11:47:05;;;;;;;5.00;1.50;;;;;;;-144.47;50.60;53227.53;5024645;28;20086;-66
2022/05/27 11:50:09;;;;;;;9.10;1.88;;;;;;;-144.47;50.26;53269.22;5040599;28;20058;-69
2022/05/27 11:52:45;;;;;;;4.82;1.60;;;;;;;-144.47;50.72;53289.09;5023576;28;20056;-65
2022/05/27 11:55:31;;;;;;;3.50;1.65;;;;;;;-144.47;50.23;53273.22;5023536;28;20113;-68
2022/05/27 11:58:12;;;;;;;7.68;2.05;;;;;;;-144.47;50.23;53281.16;5024663;28;20021;-65
2022/05/27 12:00:47;;;;;;;9.82;1.55;;;;;;;-144.47;49.06;53267.25;5023149;28;20125;-66
2022/05/27 12:03:21;;;;;;;2.45;1.50;;;;;;;-144.47;48.35;53283.13;5028472;28;20511;-68
2022/05/27 12:05:51;;;;;;;4.20;1.80;;;;;;;-144.47;48.56;53215.59;5030910;28;20073;-69